sensor_id;sensor_type;location;lat;lon;timestamp;pressure;altitude;pressure_sealevel;temperature;humidity
52745;BME280;38637;49.984;20.426;2023-07-29T00:02:16;98739.22;;;18.18;95.47
52745;BME280;38637;49.984;20.426;2023-07-29T00:04:41;98745.41;;;18.15;95.67
52745;BME280;38637;49.984;20.426;2023-07-29T00:07:07;98745.25;;;18.11;95.74
52745;BME280;38637;49.984;20.426;2023-07-29T00:09:32;98739.56;;;18.08;95.96
52745;BME280;38637;49.984;20.426;2023-07-29T00:11:57;98746.56;;;18.05;95.83
52745;BME280;38637;49.984;20.426;2023-07-29T00:14:23;98744.13;;;18.04;95.95
52745;BME280;38637;49.984;20.426;2023-07-29T00:16:48;98746.41;;;18.02;96.00
52745;BME280;38637;49.984;20.426;2023-07-29T00:19:13;98744.13;;;17.95;96.51
52745;BME280;38637;49.984;20.426;2023-07-29T00:21:39;98745.28;;;17.94;96.52
52745;BME280;38637;49.984;20.426;2023-07-29T00:24:06;98749.16;;;17.93;96.54
52745;BME280;38637;49.984;20.426;2023-07-29T00:26:31;98744.63;;;17.88;96.54
52745;BME280;38637;49.984;20.426;2023-07-29T00:28:57;98734.88;;;17.82;96.43
52745;BME280;38637;49.984;20.426;2023-07-29T00:31:22;98747.03;;;17.81;96.49
52745;BME280;38637;49.984;20.426;2023-07-29T00:33:48;98737.59;;;17.74;96.69
52745;BME280;38637;49.984;20.426;2023-07-29T00:36:13;98734.03;;;17.73;96.61
52745;BME280;38637;49.984;20.426;2023-07-29T00:38:38;98735.00;;;17.68;96.70
52745;BME280;38637;49.984;20.426;2023-07-29T00:41:04;98735.97;;;17.64;97.05
52745;BME280;38637;49.984;20.426;2023-07-29T00:43:30;98734.69;;;17.61;97.07
52745;BME280;38637;49.984;20.426;2023-07-29T00:45:55;98732.56;;;17.58;97.32
52745;BME280;38637;49.984;20.426;2023-07-29T00:48:22;98737.94;;;17.55;100.00
52745;BME280;38637;49.984;20.426;2023-07-29T00:50:48;98737.91;;;17.46;100.00
52745;BME280;38637;49.984;20.426;2023-07-29T00:53:14;98733.19;;;17.38;100.00
52745;BME280;38637;49.984;20.426;2023-07-29T00:55:40;98737.38;;;17.35;100.00
52745;BME280;38637;49.984;20.426;2023-07-29T00:58:07;98744.06;;;17.34;100.00
52745;BME280;38637;49.984;20.426;2023-07-29T01:00:32;98733.50;;;17.28;100.00
52745;BME280;38637;49.984;20.426;2023-07-29T01:02:57;98742.59;;;17.28;100.00
52745;BME280;38637;49.984;20.426;2023-07-29T01:05:29;98736.56;;;17.26;99.77
52745;BME280;38637;49.984;20.426;2023-07-29T01:08:09;98742.09;;;17.26;99.48
52745;BME280;38637;49.984;20.426;2023-07-29T01:10:51;98735.94;;;17.20;99.13
52745;BME280;38637;49.984;20.426;2023-07-29T01:13:33;98742.56;;;17.19;99.07
52745;BME280;38637;49.984;20.426;2023-07-29T01:16:06;98742.91;;;17.18;99.05
52745;BME280;38637;49.984;20.426;2023-07-29T01:18:36;98731.69;;;17.14;99.15
52745;BME280;38637;49.984;20.426;2023-07-29T01:21:04;98744.66;;;17.14;99.26
52745;BME280;38637;49.984;20.426;2023-07-29T01:23:34;98752.44;;;17.12;99.02
52745;BME280;38637;49.984;20.426;2023-07-29T01:26:00;98744.31;;;17.07;99.00
52745;BME280;38637;49.984;20.426;2023-07-29T01:28:26;98746.09;;;17.03;98.73
52745;BME280;38637;49.984;20.426;2023-07-29T01:30:59;98735.03;;;16.94;98.76
52745;BME280;38637;49.984;20.426;2023-07-29T01:33:32;98740.72;;;16.97;98.97
52745;BME280;38637;49.984;20.426;2023-07-29T01:36:03;98750.59;;;16.98;98.89
52745;BME280;38637;49.984;20.426;2023-07-29T01:38:33;98753.19;;;16.95;99.50
52745;BME280;38637;49.984;20.426;2023-07-29T01:41:04;98747.84;;;16.90;99.83
52745;BME280;38637;49.984;20.426;2023-07-29T01:43:31;98759.97;;;16.89;99.79
52745;BME280;38637;49.984;20.426;2023-07-29T01:45:57;98756.75;;;16.87;99.74
52745;BME280;38637;49.984;20.426;2023-07-29T01:48:23;98760.63;;;16.86;99.98
52745;BME280;38637;49.984;20.426;2023-07-29T01:50:48;98755.56;;;16.79;99.89
52745;BME280;38637;49.984;20.426;2023-07-29T01:53:14;98754.63;;;16.84;100.00
52745;BME280;38637;49.984;20.426;2023-07-29T01:55:40;98752.97;;;16.83;99.75
52745;BME280;38637;49.984;20.426;2023-07-29T01:58:05;98758.31;;;16.79;99.60
52745;BME280;38637;49.984;20.426;2023-07-29T02:00:30;98754.84;;;16.73;99.62
52745;BME280;38637;49.984;20.426;2023-07-29T02:02:56;98751.94;;;16.70;99.77
52745;BME280;38637;49.984;20.426;2023-07-29T02:05:21;98755.66;;;16.65;99.60
52745;BME280;38637;49.984;20.426;2023-07-29T02:07:46;98753.81;;;16.61;99.86
52745;BME280;38637;49.984;20.426;2023-07-29T02:10:12;98757.72;;;16.60;99.93
52745;BME280;38637;49.984;20.426;2023-07-29T02:12:37;98770.00;;;16.53;99.97
52745;BME280;38637;49.984;20.426;2023-07-29T02:15:03;98772.91;;;16.48;100.00
52745;BME280;38637;49.984;20.426;2023-07-29T02:17:29;98767.72;;;16.47;100.00
52745;BME280;38637;49.984;20.426;2023-07-29T02:19:54;98763.81;;;16.48;100.00
52745;BME280;38637;49.984;20.426;2023-07-29T02:22:20;98756.53;;;16.52;100.00
52745;BME280;38637;49.984;20.426;2023-07-29T02:24:45;98768.56;;;16.56;100.00
52745;BME280;38637;49.984;20.426;2023-07-29T02:27:11;98762.09;;;16.61;100.00
52745;BME280;38637;49.984;20.426;2023-07-29T02:29:36;98769.72;;;16.64;100.00
52745;BME280;38637;49.984;20.426;2023-07-29T02:32:02;98768.94;;;16.63;100.00
52745;BME280;38637;49.984;20.426;2023-07-29T02:34:28;98756.41;;;16.57;100.00
52745;BME280;38637;49.984;20.426;2023-07-29T02:36:53;98766.00;;;16.60;100.00
52745;BME280;38637;49.984;20.426;2023-07-29T02:39:19;98769.38;;;16.57;100.00
52745;BME280;38637;49.984;20.426;2023-07-29T02:41:44;98765.81;;;16.56;100.00
52745;BME280;38637;49.984;20.426;2023-07-29T02:44:09;98761.13;;;16.57;100.00
52745;BME280;38637;49.984;20.426;2023-07-29T02:46:35;98776.84;;;16.56;100.00
52745;BME280;38637;49.984;20.426;2023-07-29T02:49:02;98764.03;;;16.60;100.00
52745;BME280;38637;49.984;20.426;2023-07-29T02:51:28;98763.88;;;16.57;100.00
52745;BME280;38637;49.984;20.426;2023-07-29T02:53:53;98770.53;;;16.64;100.00
52745;BME280;38637;49.984;20.426;2023-07-29T02:56:18;98773.81;;;16.66;100.00
52745;BME280;38637;49.984;20.426;2023-07-29T02:58:43;98764.09;;;16.69;100.00
52745;BME280;38637;49.984;20.426;2023-07-29T03:01:09;98760.84;;;16.67;100.00
52745;BME280;38637;49.984;20.426;2023-07-29T03:03:35;98755.19;;;16.72;100.00
52745;BME280;38637;49.984;20.426;2023-07-29T03:06:09;98755.66;;;16.74;100.00
52745;BME280;38637;49.984;20.426;2023-07-29T03:08:35;98768.63;;;16.73;100.00
52745;BME280;38637;49.984;20.426;2023-07-29T03:11:12;98762.53;;;16.76;100.00
52745;BME280;38637;49.984;20.426;2023-07-29T03:13:37;98763.84;;;16.79;100.00
52745;BME280;38637;49.984;20.426;2023-07-29T03:16:10;98768.88;;;16.86;100.00
52745;BME280;38637;49.984;20.426;2023-07-29T03:18:36;98764.06;;;16.91;100.00
52745;BME280;38637;49.984;20.426;2023-07-29T03:21:02;98764.72;;;16.97;100.00
52745;BME280;38637;49.984;20.426;2023-07-29T03:23:28;98768.31;;;17.06;100.00
52745;BME280;38637;49.984;20.426;2023-07-29T03:25:58;98771.94;;;17.15;100.00
52745;BME280;38637;49.984;20.426;2023-07-29T03:28:28;98772.59;;;17.21;99.57
52745;BME280;38637;49.984;20.426;2023-07-29T03:30:54;98771.31;;;17.27;99.54
52745;BME280;38637;49.984;20.426;2023-07-29T03:33:20;98777.00;;;17.31;99.16
52745;BME280;38637;49.984;20.426;2023-07-29T03:35:45;98779.13;;;17.34;99.28
52745;BME280;38637;49.984;20.426;2023-07-29T03:38:11;98776.53;;;17.37;99.56
52745;BME280;38637;49.984;20.426;2023-07-29T03:40:37;98779.31;;;17.46;99.72
52745;BME280;38637;49.984;20.426;2023-07-29T03:43:03;98770.38;;;17.49;99.87
52745;BME280;38637;49.984;20.426;2023-07-29T03:45:29;98782.94;;;17.64;99.91
52745;BME280;38637;49.984;20.426;2023-07-29T03:47:54;98782.44;;;17.71;100.00
52745;BME280;38637;49.984;20.426;2023-07-29T03:50:20;98786.97;;;17.75;99.76
52745;BME280;38637;49.984;20.426;2023-07-29T03:52:46;98788.00;;;17.79;99.47
52745;BME280;38637;49.984;20.426;2023-07-29T03:55:11;98795.94;;;17.81;99.95
52745;BME280;38637;49.984;20.426;2023-07-29T03:57:36;98797.25;;;17.83;100.00
52745;BME280;38637;49.984;20.426;2023-07-29T04:00:02;98794.84;;;17.82;99.88
52745;BME280;38637;49.984;20.426;2023-07-29T04:02:28;98801.19;;;17.91;99.99
52745;BME280;38637;49.984;20.426;2023-07-29T04:04:53;98796.63;;;17.95;99.95
52745;BME280;38637;49.984;20.426;2023-07-29T04:07:19;98804.75;;;18.00;99.64
52745;BME280;38637;49.984;20.426;2023-07-29T04:09:44;98799.41;;;18.04;99.54
52745;BME280;38637;49.984;20.426;2023-07-29T04:12:10;98805.22;;;18.11;99.41
52745;BME280;38637;49.984;20.426;2023-07-29T04:14:35;98804.88;;;18.21;99.06
52745;BME280;38637;49.984;20.426;2023-07-29T04:17:00;98803.13;;;18.34;98.79
52745;BME280;38637;49.984;20.426;2023-07-29T04:19:26;98807.13;;;18.54;98.23
52745;BME280;38637;49.984;20.426;2023-07-29T04:21:51;98813.81;;;18.62;97.55
52745;BME280;38637;49.984;20.426;2023-07-29T04:24:17;98801.28;;;18.64;97.11
52745;BME280;38637;49.984;20.426;2023-07-29T04:26:42;98811.03;;;18.70;96.83
52745;BME280;38637;49.984;20.426;2023-07-29T04:29:07;98810.41;;;18.73;96.47
52745;BME280;38637;49.984;20.426;2023-07-29T04:31:32;98806.31;;;18.79;96.19
52745;BME280;38637;49.984;20.426;2023-07-29T04:33:58;98807.91;;;18.89;96.08
52745;BME280;38637;49.984;20.426;2023-07-29T04:36:23;98807.69;;;19.03;95.56
52745;BME280;38637;49.984;20.426;2023-07-29T04:38:49;98809.75;;;19.15;95.27
52745;BME280;38637;49.984;20.426;2023-07-29T04:41:14;98807.44;;;19.25;94.32
52745;BME280;38637;49.984;20.426;2023-07-29T04:43:39;98799.22;;;19.38;94.08
52745;BME280;38637;49.984;20.426;2023-07-29T04:46:08;98790.53;;;19.48;93.74
52745;BME280;38637;49.984;20.426;2023-07-29T04:48:33;98798.16;;;19.51;93.35
52745;BME280;38637;49.984;20.426;2023-07-29T04:50:59;98798.25;;;19.63;93.27
52745;BME280;38637;49.984;20.426;2023-07-29T04:53:24;98808.22;;;19.64;93.35
52745;BME280;38637;49.984;20.426;2023-07-29T04:55:49;98810.81;;;19.61;93.50
52745;BME280;38637;49.984;20.426;2023-07-29T04:58:15;98807.44;;;19.55;94.07
52745;BME280;38637;49.984;20.426;2023-07-29T05:00:40;98811.84;;;19.56;94.25
52745;BME280;38637;49.984;20.426;2023-07-29T05:03:05;98812.97;;;19.55;94.71
52745;BME280;38637;49.984;20.426;2023-07-29T05:05:31;98821.63;;;19.54;94.92
52745;BME280;38637;49.984;20.426;2023-07-29T05:07:57;98822.91;;;19.56;95.27
52745;BME280;38637;49.984;20.426;2023-07-29T05:10:22;98828.44;;;19.56;95.52
52745;BME280;38637;49.984;20.426;2023-07-29T05:12:48;98834.44;;;19.58;95.25
52745;BME280;38637;49.984;20.426;2023-07-29T05:15:13;98840.97;;;19.62;95.63
52745;BME280;38637;49.984;20.426;2023-07-29T05:17:39;98832.81;;;19.66;95.38
52745;BME280;38637;49.984;20.426;2023-07-29T05:20:05;98833.09;;;19.73;95.35
52745;BME280;38637;49.984;20.426;2023-07-29T05:22:30;98839.06;;;19.84;95.50
52745;BME280;38637;49.984;20.426;2023-07-29T05:24:55;98837.63;;;19.98;94.81
52745;BME280;38637;49.984;20.426;2023-07-29T05:27:21;98838.88;;;20.10;94.68
52745;BME280;38637;49.984;20.426;2023-07-29T05:29:46;98842.19;;;20.24;94.17
52745;BME280;38637;49.984;20.426;2023-07-29T05:32:11;98841.91;;;20.38;93.11
52745;BME280;38637;49.984;20.426;2023-07-29T05:34:37;98834.78;;;20.49;92.26
52745;BME280;38637;49.984;20.426;2023-07-29T05:37:02;98838.66;;;20.57;91.41
52745;BME280;38637;49.984;20.426;2023-07-29T05:39:27;98847.25;;;20.64;91.02
52745;BME280;38637;49.984;20.426;2023-07-29T05:41:52;98849.03;;;20.81;90.33
52745;BME280;38637;49.984;20.426;2023-07-29T05:44:18;98847.50;;;21.17;88.42
52745;BME280;38637;49.984;20.426;2023-07-29T05:46:43;98845.94;;;21.52;86.49
52745;BME280;38637;49.984;20.426;2023-07-29T05:49:08;98850.53;;;21.61;84.65
52745;BME280;38637;49.984;20.426;2023-07-29T05:51:34;98839.00;;;21.59;85.35
52745;BME280;38637;49.984;20.426;2023-07-29T05:53:59;98845.91;;;21.77;84.97
52745;BME280;38637;49.984;20.426;2023-07-29T05:56:24;98846.59;;;21.86;84.27
52745;BME280;38637;49.984;20.426;2023-07-29T05:58:50;98841.81;;;21.99;84.16
52745;BME280;38637;49.984;20.426;2023-07-29T06:01:15;98846.91;;;22.09;83.61
52745;BME280;38637;49.984;20.426;2023-07-29T06:03:40;98841.78;;;22.23;83.33
52745;BME280;38637;49.984;20.426;2023-07-29T06:06:06;98846.63;;;22.39;83.33
52745;BME280;38637;49.984;20.426;2023-07-29T06:08:31;98838.38;;;22.42;82.64
52745;BME280;38637;49.984;20.426;2023-07-29T06:10:59;98840.44;;;22.45;81.80
52745;BME280;38637;49.984;20.426;2023-07-29T06:13:24;98840.53;;;22.49;80.86
52745;BME280;38637;49.984;20.426;2023-07-29T06:15:50;98848.28;;;22.56;80.97
52745;BME280;38637;49.984;20.426;2023-07-29T06:18:15;98848.41;;;22.59;81.26
52745;BME280;38637;49.984;20.426;2023-07-29T06:20:40;98847.13;;;22.57;81.32
52745;BME280;38637;49.984;20.426;2023-07-29T06:23:06;98842.47;;;22.61;81.36
52745;BME280;38637;49.984;20.426;2023-07-29T06:25:31;98843.53;;;22.56;80.43
52745;BME280;38637;49.984;20.426;2023-07-29T06:27:57;98833.66;;;22.59;81.02
52745;BME280;38637;49.984;20.426;2023-07-29T06:30:23;98835.28;;;22.60;81.07
52745;BME280;38637;49.984;20.426;2023-07-29T06:32:48;98843.72;;;22.63;81.51
52745;BME280;38637;49.984;20.426;2023-07-29T06:35:14;98851.38;;;22.66;81.10
52745;BME280;38637;49.984;20.426;2023-07-29T06:37:39;98852.63;;;22.69;80.52
52745;BME280;38637;49.984;20.426;2023-07-29T06:40:05;98856.56;;;22.68;80.33
52745;BME280;38637;49.984;20.426;2023-07-29T06:42:30;98860.28;;;22.72;79.10
52745;BME280;38637;49.984;20.426;2023-07-29T06:44:55;98870.34;;;22.77;79.26
52745;BME280;38637;49.984;20.426;2023-07-29T06:47:21;98852.91;;;22.80;79.45
52745;BME280;38637;49.984;20.426;2023-07-29T06:49:46;98852.13;;;22.79;79.96
52745;BME280;38637;49.984;20.426;2023-07-29T06:52:12;98846.09;;;22.77;80.14
52745;BME280;38637;49.984;20.426;2023-07-29T06:54:37;98849.44;;;22.83;80.15
52745;BME280;38637;49.984;20.426;2023-07-29T06:57:03;98842.72;;;22.84;80.05
52745;BME280;38637;49.984;20.426;2023-07-29T06:59:28;98840.91;;;22.91;79.54
52745;BME280;38637;49.984;20.426;2023-07-29T07:01:53;98842.75;;;23.00;79.75
52745;BME280;38637;49.984;20.426;2023-07-29T07:04:19;98835.75;;;23.06;80.02
52745;BME280;38637;49.984;20.426;2023-07-29T07:06:44;98846.03;;;23.17;79.65
52745;BME280;38637;49.984;20.426;2023-07-29T07:09:09;98838.63;;;23.25;79.41
52745;BME280;38637;49.984;20.426;2023-07-29T07:11:35;98837.19;;;23.31;78.62
52745;BME280;38637;49.984;20.426;2023-07-29T07:14:00;98838.53;;;23.37;78.20
52745;BME280;38637;49.984;20.426;2023-07-29T07:16:25;98841.06;;;23.43;78.59
52745;BME280;38637;49.984;20.426;2023-07-29T07:18:51;98832.72;;;23.43;78.00
52745;BME280;38637;49.984;20.426;2023-07-29T07:21:16;98826.84;;;23.48;77.69
52745;BME280;38637;49.984;20.426;2023-07-29T07:23:41;98834.94;;;23.53;78.50
52745;BME280;38637;49.984;20.426;2023-07-29T07:26:07;98831.50;;;23.59;78.46
52745;BME280;38637;49.984;20.426;2023-07-29T07:28:32;98839.25;;;23.66;78.36
52745;BME280;38637;49.984;20.426;2023-07-29T07:30:57;98830.19;;;23.69;78.71
52745;BME280;38637;49.984;20.426;2023-07-29T07:33:23;98832.25;;;23.72;76.92
52745;BME280;38637;49.984;20.426;2023-07-29T07:35:48;98831.97;;;23.77;76.83
52745;BME280;38637;49.984;20.426;2023-07-29T07:38:13;98828.63;;;23.72;77.07
52745;BME280;38637;49.984;20.426;2023-07-29T07:40:39;98835.06;;;23.72;78.47
52745;BME280;38637;49.984;20.426;2023-07-29T07:43:04;98827.56;;;23.76;76.45
52745;BME280;38637;49.984;20.426;2023-07-29T07:45:29;98838.78;;;23.80;77.12
52745;BME280;38637;49.984;20.426;2023-07-29T07:47:56;98834.94;;;23.84;75.93
52745;BME280;38637;49.984;20.426;2023-07-29T07:50:21;98823.56;;;23.93;76.07
52745;BME280;38637;49.984;20.426;2023-07-29T07:52:47;98836.78;;;23.96;75.94
52745;BME280;38637;49.984;20.426;2023-07-29T07:55:12;98826.13;;;24.02;75.85
52745;BME280;38637;49.984;20.426;2023-07-29T07:57:37;98826.88;;;23.99;75.42
52745;BME280;38637;49.984;20.426;2023-07-29T08:00:03;98831.38;;;24.03;74.76
52745;BME280;38637;49.984;20.426;2023-07-29T08:02:29;98829.38;;;24.04;72.53
52745;BME280;38637;49.984;20.426;2023-07-29T08:04:54;98821.22;;;24.15;73.24
52745;BME280;38637;49.984;20.426;2023-07-29T08:07:20;98825.88;;;24.26;74.54
52745;BME280;38637;49.984;20.426;2023-07-29T08:09:45;98828.63;;;24.42;73.19
52745;BME280;38637;49.984;20.426;2023-07-29T08:12:10;98821.06;;;24.62;71.83
52745;BME280;38637;49.984;20.426;2023-07-29T08:14:36;98810.66;;;24.82;71.41
52745;BME280;38637;49.984;20.426;2023-07-29T08:17:01;98818.63;;;25.03;69.27
52745;BME280;38637;49.984;20.426;2023-07-29T08:19:26;98820.38;;;25.11;68.31
52745;BME280;38637;49.984;20.426;2023-07-29T08:21:52;98813.09;;;25.07;68.24
52745;BME280;38637;49.984;20.426;2023-07-29T08:24:17;98817.09;;;25.29;67.37
52745;BME280;38637;49.984;20.426;2023-07-29T08:26:43;98825.72;;;25.43;67.12
52745;BME280;38637;49.984;20.426;2023-07-29T08:29:08;98818.75;;;25.56;67.75
52745;BME280;38637;49.984;20.426;2023-07-29T08:31:33;98822.75;;;25.59;65.16
52745;BME280;38637;49.984;20.426;2023-07-29T08:33:59;98805.84;;;25.75;65.00
52745;BME280;38637;49.984;20.426;2023-07-29T08:36:25;98818.16;;;25.97;64.82
52745;BME280;38637;49.984;20.426;2023-07-29T08:38:50;98810.63;;;26.01;65.03
52745;BME280;38637;49.984;20.426;2023-07-29T08:43:50;98814.50;;;25.93;64.91
52745;BME280;38637;49.984;20.426;2023-07-29T08:46:19;98803.03;;;25.75;63.88
52745;BME280;38637;49.984;20.426;2023-07-29T08:48:45;98812.50;;;25.66;64.35
52745;BME280;38637;49.984;20.426;2023-07-29T08:51:12;98804.78;;;25.56;65.33
52745;BME280;38637;49.984;20.426;2023-07-29T08:53:38;98807.03;;;25.47;65.42
52745;BME280;38637;49.984;20.426;2023-07-29T08:56:04;98800.19;;;25.44;65.60
52745;BME280;38637;49.984;20.426;2023-07-29T08:58:30;98802.59;;;25.46;65.47
52745;BME280;38637;49.984;20.426;2023-07-29T09:00:56;98805.78;;;25.44;64.83
52745;BME280;38637;49.984;20.426;2023-07-29T09:03:21;98795.19;;;25.57;64.68
52745;BME280;38637;49.984;20.426;2023-07-29T09:05:47;98800.66;;;25.77;64.62
52745;BME280;38637;49.984;20.426;2023-07-29T09:08:13;98801.47;;;26.04;62.78
52745;BME280;38637;49.984;20.426;2023-07-29T09:10:38;98797.31;;;26.21;62.29
52745;BME280;38637;49.984;20.426;2023-07-29T09:13:04;98788.25;;;26.34;61.86
52745;BME280;38637;49.984;20.426;2023-07-29T09:15:32;98795.09;;;26.37;60.48
52745;BME280;38637;49.984;20.426;2023-07-29T09:17:59;98782.81;;;26.45;60.98
52745;BME280;38637;49.984;20.426;2023-07-29T09:20:28;98775.31;;;26.53;61.17
52745;BME280;38637;49.984;20.426;2023-07-29T09:22:54;98783.34;;;26.54;61.71
52745;BME280;38637;49.984;20.426;2023-07-29T09:25:30;98776.53;;;26.55;62.44
52745;BME280;38637;49.984;20.426;2023-07-29T09:27:59;98772.44;;;26.83;61.12
52745;BME280;38637;49.984;20.426;2023-07-29T09:30:25;98775.28;;;26.90;59.48
52745;BME280;38637;49.984;20.426;2023-07-29T09:32:57;98778.03;;;26.83;59.85
52745;BME280;38637;49.984;20.426;2023-07-29T09:35:23;98760.00;;;26.84;59.49
52745;BME280;38637;49.984;20.426;2023-07-29T09:37:50;98772.44;;;26.83;59.47
52745;BME280;38637;49.984;20.426;2023-07-29T09:40:17;98773.09;;;26.69;58.96
52745;BME280;38637;49.984;20.426;2023-07-29T09:42:53;98781.09;;;26.71;59.76
52745;BME280;38637;49.984;20.426;2023-07-29T09:45:26;98773.34;;;26.94;61.38
52745;BME280;38637;49.984;20.426;2023-07-29T09:47:53;98774.84;;;27.25;60.62
52745;BME280;38637;49.984;20.426;2023-07-29T09:50:18;98771.44;;;27.54;59.90
52745;BME280;38637;49.984;20.426;2023-07-29T09:52:44;98767.25;;;27.88;58.59
52745;BME280;38637;49.984;20.426;2023-07-29T09:55:13;98766.19;;;28.07;57.28
52745;BME280;38637;49.984;20.426;2023-07-29T09:57:41;98766.28;;;28.32;55.69
52745;BME280;38637;49.984;20.426;2023-07-29T10:00:10;98769.19;;;28.68;55.35
52745;BME280;38637;49.984;20.426;2023-07-29T10:02:40;98753.19;;;28.90;54.95
52745;BME280;38637;49.984;20.426;2023-07-29T10:05:07;98756.84;;;29.19;53.42
52745;BME280;38637;49.984;20.426;2023-07-29T10:07:37;98756.84;;;29.37;53.60
52745;BME280;38637;49.984;20.426;2023-07-29T10:10:04;98758.84;;;29.33;52.39
52745;BME280;38637;49.984;20.426;2023-07-29T10:12:34;98757.25;;;29.21;51.89
52745;BME280;38637;49.984;20.426;2023-07-29T10:15:05;98762.84;;;29.00;52.24
52745;BME280;38637;49.984;20.426;2023-07-29T10:17:33;98763.28;;;29.02;53.69
52745;BME280;38637;49.984;20.426;2023-07-29T10:19:59;98767.69;;;29.17;53.31
52745;BME280;38637;49.984;20.426;2023-07-29T10:22:28;98766.50;;;29.15;52.42
52745;BME280;38637;49.984;20.426;2023-07-29T10:25:03;98761.28;;;29.20;51.70
52745;BME280;38637;49.984;20.426;2023-07-29T10:27:31;98754.84;;;29.30;52.46
52745;BME280;38637;49.984;20.426;2023-07-29T10:29:59;98748.81;;;29.21;50.69
52745;BME280;38637;49.984;20.426;2023-07-29T10:32:25;98752.81;;;29.06;49.89
52745;BME280;38637;49.984;20.426;2023-07-29T10:34:54;98750.00;;;28.99;51.07
52745;BME280;38637;49.984;20.426;2023-07-29T10:37:20;98757.19;;;28.89;50.49
52745;BME280;38637;49.984;20.426;2023-07-29T10:39:54;98765.16;;;28.62;50.99
52745;BME280;38637;49.984;20.426;2023-07-29T10:42:20;98762.66;;;28.35;50.46
52745;BME280;38637;49.984;20.426;2023-07-29T10:44:46;98759.00;;;28.21;51.45
52745;BME280;38637;49.984;20.426;2023-07-29T10:49:49;98762.25;;;28.30;53.72
52745;BME280;38637;49.984;20.426;2023-07-29T10:52:17;98751.00;;;28.26;54.51
52745;BME280;38637;49.984;20.426;2023-07-29T10:54:52;98750.94;;;28.08;55.41
52745;BME280;38637;49.984;20.426;2023-07-29T10:57:37;98754.00;;;27.78;56.79
52745;BME280;38637;49.984;20.426;2023-07-29T11:00:05;98755.78;;;27.49;56.82
52745;BME280;38637;49.984;20.426;2023-07-29T11:02:32;98756.44;;;27.28;57.33
52745;BME280;38637;49.984;20.426;2023-07-29T11:04:58;98747.88;;;27.14;58.22
52745;BME280;38637;49.984;20.426;2023-07-29T11:07:27;98753.44;;;27.07;59.37
52745;BME280;38637;49.984;20.426;2023-07-29T11:10:00;98750.22;;;27.08;60.41
52745;BME280;38637;49.984;20.426;2023-07-29T11:15:22;98770.75;;;27.16;60.99
52745;BME280;38637;49.984;20.426;2023-07-29T11:17:59;98781.19;;;27.19;61.34
52745;BME280;38637;49.984;20.426;2023-07-29T11:20:29;98779.22;;;27.23;61.53
52745;BME280;38637;49.984;20.426;2023-07-29T11:22:56;98777.25;;;27.27;61.30
52745;BME280;38637;49.984;20.426;2023-07-29T11:25:23;98767.66;;;27.28;60.54
52745;BME280;38637;49.984;20.426;2023-07-29T11:27:52;98776.47;;;27.30;59.41
52745;BME280;38637;49.984;20.426;2023-07-29T11:30:18;98775.69;;;27.33;57.93
52745;BME280;38637;49.984;20.426;2023-07-29T11:32:44;98771.88;;;27.56;57.43
52745;BME280;38637;49.984;20.426;2023-07-29T11:35:14;98765.94;;;27.71;57.11
52745;BME280;38637;49.984;20.426;2023-07-29T11:37:42;98775.81;;;28.13;56.38
52745;BME280;38637;49.984;20.426;2023-07-29T11:40:08;98769.94;;;28.44;56.96
52745;BME280;38637;49.984;20.426;2023-07-29T11:42:36;98760.38;;;28.66;56.69
52745;BME280;38637;49.984;20.426;2023-07-29T11:45:02;98756.78;;;28.69;56.75
52745;BME280;38637;49.984;20.426;2023-07-29T11:47:28;98766.38;;;28.61;55.86
52745;BME280;38637;49.984;20.426;2023-07-29T11:49:54;98759.97;;;28.57;54.73
52745;BME280;38637;49.984;20.426;2023-07-29T11:52:19;98760.75;;;28.61;54.85
52745;BME280;38637;49.984;20.426;2023-07-29T11:54:47;98756.34;;;28.63;55.00
52745;BME280;38637;49.984;20.426;2023-07-29T11:57:13;98754.75;;;28.62;55.58
52745;BME280;38637;49.984;20.426;2023-07-29T11:59:39;98753.13;;;28.54;55.55
52745;BME280;38637;49.984;20.426;2023-07-29T12:02:13;98741.38;;;28.34;54.50
52745;BME280;38637;49.984;20.426;2023-07-29T12:04:39;98746.59;;;28.29;55.08
52745;BME280;38637;49.984;20.426;2023-07-29T12:07:06;98738.19;;;28.29;55.80
52745;BME280;38637;49.984;20.426;2023-07-29T12:09:31;98745.81;;;28.32;57.07
52745;BME280;38637;49.984;20.426;2023-07-29T12:11:57;98744.13;;;28.13;56.91
52745;BME280;38637;49.984;20.426;2023-07-29T12:14:26;98735.59;;;27.88;57.04
52745;BME280;38637;49.984;20.426;2023-07-29T12:16:52;98732.75;;;27.81;57.00
52745;BME280;38637;49.984;20.426;2023-07-29T12:19:18;98728.38;;;27.87;57.12
52745;BME280;38637;49.984;20.426;2023-07-29T12:21:44;98738.03;;;27.93;56.36
52745;BME280;38637;49.984;20.426;2023-07-29T12:24:12;98734.41;;;27.89;55.74
52745;BME280;38637;49.984;20.426;2023-07-29T12:26:38;98731.19;;;27.87;56.09
52745;BME280;38637;49.984;20.426;2023-07-29T12:29:14;98724.38;;;27.91;56.63
52745;BME280;38637;49.984;20.426;2023-07-29T12:31:40;98728.47;;;28.08;57.55
52745;BME280;38637;49.984;20.426;2023-07-29T12:34:06;98725.31;;;28.28;56.77
52745;BME280;38637;49.984;20.426;2023-07-29T12:36:48;98732.66;;;28.57;55.45
52745;BME280;38637;49.984;20.426;2023-07-29T12:39:24;98731.09;;;28.81;54.70
52745;BME280;38637;49.984;20.426;2023-07-29T12:41:52;98737.91;;;28.98;53.17
52745;BME280;38637;49.984;20.426;2023-07-29T12:44:18;98748.41;;;29.26;53.11
52745;BME280;38637;49.984;20.426;2023-07-29T12:46:44;98742.38;;;29.31;50.55
52745;BME280;38637;49.984;20.426;2023-07-29T12:49:09;98734.72;;;29.57;50.84
52745;BME280;38637;49.984;20.426;2023-07-29T12:51:35;98740.75;;;29.66;49.61
52745;BME280;38637;49.984;20.426;2023-07-29T12:54:02;98734.25;;;29.84;50.13